sensor_id;sensor_type;location;lat;lon;timestamp;P1;durP1;ratioP1;P2;durP2;ratioP2
40198;SDS011;25906;43.536;26.068;2023-11-21T00:01:51;6.93;;;2.50;;
40198;SDS011;25906;43.536;26.068;2023-11-21T00:04:37;5.78;;;2.72;;
40198;SDS011;25906;43.536;26.068;2023-11-21T00:07:24;10.85;;;4.75;;
40198;SDS011;25906;43.536;26.068;2023-11-21T00:10:10;18.98;;;8.18;;
40198;SDS011;25906;43.536;26.068;2023-11-21T00:12:56;7.82;;;4.32;;
40198;SDS011;25906;43.536;26.068;2023-11-21T00:15:42;7.00;;;4.38;;
40198;SDS011;25906;43.536;26.068;2023-11-21T00:18:27;4.75;;;2.70;;
40198;SDS011;25906;43.536;26.068;2023-11-21T00:21:13;12.95;;;7.35;;
40198;SDS011;25906;43.536;26.068;2023-11-21T00:23:58;6.47;;;3.70;;
40198;SDS011;25906;43.536;26.068;2023-11-21T00:26:43;6.15;;;2.70;;
40198;SDS011;25906;43.536;26.068;2023-11-21T00:29:29;6.55;;;3.13;;
40198;SDS011;25906;43.536;26.068;2023-11-21T00:32:15;4.65;;;3.50;;
40198;SDS011;25906;43.536;26.068;2023-11-21T00:35:00;8.60;;;4.68;;
40198;SDS011;25906;43.536;26.068;2023-11-21T00:37:46;6.47;;;3.45;;
40198;SDS011;25906;43.536;26.068;2023-11-21T00:40:32;4.43;;;2.97;;
40198;SDS011;25906;43.536;26.068;2023-11-21T00:43:18;4.70;;;2.70;;
40198;SDS011;25906;43.536;26.068;2023-11-21T00:46:04;5.80;;;2.30;;
40198;SDS011;25906;43.536;26.068;2023-11-21T00:48:52;4.05;;;2.40;;
40198;SDS011;25906;43.536;26.068;2023-11-21T00:51:39;3.78;;;1.95;;
40198;SDS011;25906;43.536;26.068;2023-11-21T00:54:24;3.08;;;1.90;;
40198;SDS011;25906;43.536;26.068;2023-11-21T00:57:10;3.97;;;2.05;;
40198;SDS011;25906;43.536;26.068;2023-11-21T00:59:57;3.20;;;1.70;;
40198;SDS011;25906;43.536;26.068;2023-11-21T01:02:45;4.38;;;2.10;;
40198;SDS011;25906;43.536;26.068;2023-11-21T01:05:31;3.40;;;1.98;;
40198;SDS011;25906;43.536;26.068;2023-11-21T01:08:17;5.28;;;1.77;;
40198;SDS011;25906;43.536;26.068;2023-11-21T01:11:02;5.47;;;1.90;;
40198;SDS011;25906;43.536;26.068;2023-11-21T01:13:48;3.60;;;1.92;;
40198;SDS011;25906;43.536;26.068;2023-11-21T01:16:34;4.55;;;1.75;;
40198;SDS011;25906;43.536;26.068;2023-11-21T01:19:19;2.40;;;1.50;;
40198;SDS011;25906;43.536;26.068;2023-11-21T01:22:05;2.30;;;1.58;;
40198;SDS011;25906;43.536;26.068;2023-11-21T01:24:50;6.25;;;1.80;;
40198;SDS011;25906;43.536;26.068;2023-11-21T01:27:36;3.88;;;1.77;;
40198;SDS011;25906;43.536;26.068;2023-11-21T01:30:22;2.78;;;1.60;;
40198;SDS011;25906;43.536;26.068;2023-11-21T01:33:07;2.53;;;1.60;;
40198;SDS011;25906;43.536;26.068;2023-11-21T01:35:53;2.92;;;1.75;;
40198;SDS011;25906;43.536;26.068;2023-11-21T01:38:39;2.58;;;1.35;;
40198;SDS011;25906;43.536;26.068;2023-11-21T01:41:26;5.75;;;1.70;;
40198;SDS011;25906;43.536;26.068;2023-11-21T01:44:12;2.88;;;1.48;;
40198;SDS011;25906;43.536;26.068;2023-11-21T01:46:58;5.78;;;2.30;;
40198;SDS011;25906;43.536;26.068;2023-11-21T01:49:44;3.13;;;1.88;;
40198;SDS011;25906;43.536;26.068;2023-11-21T01:52:30;3.03;;;1.60;;
40198;SDS011;25906;43.536;26.068;2023-11-21T01:55:16;2.03;;;1.38;;
40198;SDS011;25906;43.536;26.068;2023-11-21T01:58:05;3.70;;;1.35;;
40198;SDS011;25906;43.536;26.068;2023-11-21T02:00:52;2.20;;;1.40;;
40198;SDS011;25906;43.536;26.068;2023-11-21T02:03:39;3.05;;;1.45;;
40198;SDS011;25906;43.536;26.068;2023-11-21T02:06:25;2.30;;;1.30;;
40198;SDS011;25906;43.536;26.068;2023-11-21T02:09:10;2.70;;;1.58;;
40198;SDS011;25906;43.536;26.068;2023-11-21T02:12:00;2.35;;;1.15;;
40198;SDS011;25906;43.536;26.068;2023-11-21T02:17:31;2.08;;;1.40;;
40198;SDS011;25906;43.536;26.068;2023-11-21T02:20:18;2.78;;;1.67;;
40198;SDS011;25906;43.536;26.068;2023-11-21T02:23:04;5.07;;;1.30;;
40198;SDS011;25906;43.536;26.068;2023-11-21T02:25:50;6.35;;;1.42;;
40198;SDS011;25906;43.536;26.068;2023-11-21T02:28:36;2.35;;;1.40;;
40198;SDS011;25906;43.536;26.068;2023-11-21T02:34:08;4.35;;;1.52;;
40198;SDS011;25906;43.536;26.068;2023-11-21T02:36:53;3.65;;;1.50;;
40198;SDS011;25906;43.536;26.068;2023-11-21T02:42:24;3.10;;;1.40;;
40198;SDS011;25906;43.536;26.068;2023-11-21T02:45:10;3.08;;;1.30;;
40198;SDS011;25906;43.536;26.068;2023-11-21T02:47:57;3.33;;;1.30;;
40198;SDS011;25906;43.536;26.068;2023-11-21T02:50:43;3.42;;;1.63;;
40198;SDS011;25906;43.536;26.068;2023-11-21T02:53:28;2.28;;;1.10;;
40198;SDS011;25906;43.536;26.068;2023-11-21T02:56:14;4.07;;;1.30;;
40198;SDS011;25906;43.536;26.068;2023-11-21T02:59:00;2.28;;;1.10;;
40198;SDS011;25906;43.536;26.068;2023-11-21T03:01:45;2.22;;;1.17;;
40198;SDS011;25906;43.536;26.068;2023-11-21T03:04:31;1.92;;;1.35;;
40198;SDS011;25906;43.536;26.068;2023-11-21T03:07:17;2.30;;;1.15;;
40198;SDS011;25906;43.536;26.068;2023-11-21T03:10:07;2.28;;;1.10;;
40198;SDS011;25906;43.536;26.068;2023-11-21T03:12:56;2.38;;;1.33;;
40198;SDS011;25906;43.536;26.068;2023-11-21T03:15:42;3.53;;;1.20;;
40198;SDS011;25906;43.536;26.068;2023-11-21T03:18:28;2.47;;;1.40;;
40198;SDS011;25906;43.536;26.068;2023-11-21T03:21:14;4.40;;;1.30;;
40198;SDS011;25906;43.536;26.068;2023-11-21T03:23:59;3.53;;;1.20;;
40198;SDS011;25906;43.536;26.068;2023-11-21T03:26:45;2.95;;;1.48;;
40198;SDS011;25906;43.536;26.068;2023-11-21T03:29:35;4.03;;;1.65;;
40198;SDS011;25906;43.536;26.068;2023-11-21T03:32:21;2.50;;;1.50;;
40198;SDS011;25906;43.536;26.068;2023-11-21T03:35:06;4.50;;;1.52;;
40198;SDS011;25906;43.536;26.068;2023-11-21T03:40:38;4.55;;;1.30;;
40198;SDS011;25906;43.536;26.068;2023-11-21T03:43:24;3.10;;;1.70;;
40198;SDS011;25906;43.536;26.068;2023-11-21T03:46:10;1.60;;;1.50;;
40198;SDS011;25906;43.536;26.068;2023-11-21T03:48:55;2.78;;;1.23;;
40198;SDS011;25906;43.536;26.068;2023-11-21T03:51:41;6.28;;;1.48;;
40198;SDS011;25906;43.536;26.068;2023-11-21T03:54:26;5.03;;;1.60;;
40198;SDS011;25906;43.536;26.068;2023-11-21T03:57:12;2.28;;;1.10;;
40198;SDS011;25906;43.536;26.068;2023-11-21T03:59:57;3.42;;;1.63;;
40198;SDS011;25906;43.536;26.068;2023-11-21T04:02:43;3.13;;;1.70;;
40198;SDS011;25906;43.536;26.068;2023-11-21T04:05:30;4.45;;;1.83;;
40198;SDS011;25906;43.536;26.068;2023-11-21T04:11:01;2.70;;;1.42;;
40198;SDS011;25906;43.536;26.068;2023-11-21T04:13:47;2.88;;;1.30;;
40198;SDS011;25906;43.536;26.068;2023-11-21T04:16:32;2.28;;;1.63;;
40198;SDS011;25906;43.536;26.068;2023-11-21T04:19:18;5.28;;;1.50;;
40198;SDS011;25906;43.536;26.068;2023-11-21T04:22:04;2.53;;;1.40;;
40198;SDS011;25906;43.536;26.068;2023-11-21T04:24:49;5.68;;;1.30;;
40198;SDS011;25906;43.536;26.068;2023-11-21T04:27:35;3.35;;;1.73;;
40198;SDS011;25906;43.536;26.068;2023-11-21T04:30:20;4.32;;;1.80;;
40198;SDS011;25906;43.536;26.068;2023-11-21T04:33:06;9.05;;;4.68;;
40198;SDS011;25906;43.536;26.068;2023-11-21T04:35:52;8.18;;;5.55;;
40198;SDS011;25906;43.536;26.068;2023-11-21T04:38:38;8.48;;;5.78;;
40198;SDS011;25906;43.536;26.068;2023-11-21T04:41:23;10.90;;;2.40;;
40198;SDS011;25906;43.536;26.068;2023-11-21T04:44:09;7.28;;;2.05;;
40198;SDS011;25906;43.536;26.068;2023-11-21T04:46:54;5.88;;;2.28;;
40198;SDS011;25906;43.536;26.068;2023-11-21T04:49:41;5.60;;;2.35;;
40198;SDS011;25906;43.536;26.068;2023-11-21T04:52:28;6.10;;;2.15;;
40198;SDS011;25906;43.536;26.068;2023-11-21T04:55:13;2.05;;;1.70;;
40198;SDS011;25906;43.536;26.068;2023-11-21T04:58:00;3.15;;;1.40;;
40198;SDS011;25906;43.536;26.068;2023-11-21T05:00:46;4.35;;;1.67;;
40198;SDS011;25906;43.536;26.068;2023-11-21T05:03:31;1.95;;;1.20;;
40198;SDS011;25906;43.536;26.068;2023-11-21T05:06:17;4.13;;;1.45;;
40198;SDS011;25906;43.536;26.068;2023-11-21T05:09:02;4.68;;;1.67;;
40198;SDS011;25906;43.536;26.068;2023-11-21T05:11:48;4.78;;;1.48;;
40198;SDS011;25906;43.536;26.068;2023-11-21T05:14:33;2.45;;;1.20;;
40198;SDS011;25906;43.536;26.068;2023-11-21T05:17:19;4.65;;;1.55;;
40198;SDS011;25906;43.536;26.068;2023-11-21T05:20:04;2.53;;;1.20;;
40198;SDS011;25906;43.536;26.068;2023-11-21T05:22:53;4.45;;;1.20;;
40198;SDS011;25906;43.536;26.068;2023-11-21T05:25:38;1.90;;;1.58;;
40198;SDS011;25906;43.536;26.068;2023-11-21T05:28:24;3.97;;;1.48;;
40198;SDS011;25906;43.536;26.068;2023-11-21T05:33:55;6.13;;;1.38;;
40198;SDS011;25906;43.536;26.068;2023-11-21T05:36:42;3.50;;;1.50;;
40198;SDS011;25906;43.536;26.068;2023-11-21T05:39:30;2.63;;;2.10;;
40198;SDS011;25906;43.536;26.068;2023-11-21T05:42:16;3.47;;;1.70;;
40198;SDS011;25906;43.536;26.068;2023-11-21T05:45:03;3.70;;;1.77;;
40198;SDS011;25906;43.536;26.068;2023-11-21T05:47:57;3.65;;;2.17;;
40198;SDS011;25906;43.536;26.068;2023-11-21T05:50:43;10.43;;;3.60;;
40198;SDS011;25906;43.536;26.068;2023-11-21T05:53:29;10.40;;;4.72;;
40198;SDS011;25906;43.536;26.068;2023-11-21T05:56:14;13.80;;;5.05;;
40198;SDS011;25906;43.536;26.068;2023-11-21T05:59:00;16.15;;;7.22;;
40198;SDS011;25906;43.536;26.068;2023-11-21T06:01:45;47.55;;;17.63;;
40198;SDS011;25906;43.536;26.068;2023-11-21T06:04:31;59.00;;;23.27;;
40198;SDS011;25906;43.536;26.068;2023-11-21T06:07:16;43.53;;;17.95;;
40198;SDS011;25906;43.536;26.068;2023-11-21T06:10:02;79.13;;;32.72;;
40198;SDS011;25906;43.536;26.068;2023-11-21T06:12:52;63.72;;;24.52;;
40198;SDS011;25906;43.536;26.068;2023-11-21T06:15:38;24.33;;;11.00;;
40198;SDS011;25906;43.536;26.068;2023-11-21T06:18:24;22.08;;;10.38;;
40198;SDS011;25906;43.536;26.068;2023-11-21T06:21:09;24.52;;;10.90;;
40198;SDS011;25906;43.536;26.068;2023-11-21T06:23:55;17.35;;;7.88;;
40198;SDS011;25906;43.536;26.068;2023-11-21T06:26:42;23.42;;;7.55;;
40198;SDS011;25906;43.536;26.068;2023-11-21T06:29:29;21.88;;;8.05;;
40198;SDS011;25906;43.536;26.068;2023-11-21T06:32:14;17.35;;;6.90;;
40198;SDS011;25906;43.536;26.068;2023-11-21T06:35:01;10.23;;;5.35;;
40198;SDS011;25906;43.536;26.068;2023-11-21T06:37:49;16.98;;;6.28;;
40198;SDS011;25906;43.536;26.068;2023-11-21T06:40:34;11.68;;;5.18;;
40198;SDS011;25906;43.536;26.068;2023-11-21T06:43:20;12.10;;;6.40;;
40198;SDS011;25906;43.536;26.068;2023-11-21T06:46:07;8.13;;;3.97;;
40198;SDS011;25906;43.536;26.068;2023-11-21T06:48:52;9.20;;;3.05;;
40198;SDS011;25906;43.536;26.068;2023-11-21T06:51:38;19.27;;;8.68;;
40198;SDS011;25906;43.536;26.068;2023-11-21T06:54:24;10.27;;;4.90;;
40198;SDS011;25906;43.536;26.068;2023-11-21T06:57:09;11.02;;;5.88;;
40198;SDS011;25906;43.536;26.068;2023-11-21T06:59:55;15.27;;;6.70;;
40198;SDS011;25906;43.536;26.068;2023-11-21T07:02:42;20.65;;;9.55;;
40198;SDS011;25906;43.536;26.068;2023-11-21T07:05:27;56.38;;;21.42;;
40198;SDS011;25906;43.536;26.068;2023-11-21T07:08:13;38.08;;;15.48;;
40198;SDS011;25906;43.536;26.068;2023-11-21T07:10:59;12.73;;;6.70;;
40198;SDS011;25906;43.536;26.068;2023-11-21T07:13:44;6.70;;;3.60;;
40198;SDS011;25906;43.536;26.068;2023-11-21T07:16:31;3.67;;;1.98;;
40198;SDS011;25906;43.536;26.068;2023-11-21T07:19:16;4.22;;;1.63;;
40198;SDS011;25906;43.536;26.068;2023-11-21T07:22:02;3.33;;;1.10;;
40198;SDS011;25906;43.536;26.068;2023-11-21T07:24:48;7.97;;;1.55;;
40198;SDS011;25906;43.536;26.068;2023-11-21T07:27:35;8.00;;;3.92;;
40198;SDS011;25906;43.536;26.068;2023-11-21T07:30:21;8.88;;;3.15;;
40198;SDS011;25906;43.536;26.068;2023-11-21T07:33:07;6.32;;;2.80;;
40198;SDS011;25906;43.536;26.068;2023-11-21T07:35:53;3.83;;;2.88;;
40198;SDS011;25906;43.536;26.068;2023-11-21T07:38:38;1.83;;;1.30;;
40198;SDS011;25906;43.536;26.068;2023-11-21T07:41:24;4.00;;;1.98;;
40198;SDS011;25906;43.536;26.068;2023-11-21T07:44:09;3.25;;;2.40;;
40198;SDS011;25906;43.536;26.068;2023-11-21T07:46:55;2.75;;;1.70;;
40198;SDS011;25906;43.536;26.068;2023-11-21T07:49:43;2.50;;;1.85;;
40198;SDS011;25906;43.536;26.068;2023-11-21T07:52:29;2.35;;;1.50;;
40198;SDS011;25906;43.536;26.068;2023-11-21T07:55:15;2.67;;;1.58;;
40198;SDS011;25906;43.536;26.068;2023-11-21T07:58:00;2.67;;;1.38;;
40198;SDS011;25906;43.536;26.068;2023-11-21T08:00:46;4.18;;;2.03;;
40198;SDS011;25906;43.536;26.068;2023-11-21T08:03:32;10.30;;;6.00;;
40198;SDS011;25906;43.536;26.068;2023-11-21T08:06:17;14.38;;;6.90;;
40198;SDS011;25906;43.536;26.068;2023-11-21T08:09:03;85.03;;;34.15;;
40198;SDS011;25906;43.536;26.068;2023-11-21T08:11:48;51.50;;;24.85;;
40198;SDS011;25906;43.536;26.068;2023-11-21T08:14:34;30.90;;;15.75;;
40198;SDS011;25906;43.536;26.068;2023-11-21T08:17:23;26.67;;;12.60;;
40198;SDS011;25906;43.536;26.068;2023-11-21T08:20:09;6.93;;;3.60;;
40198;SDS011;25906;43.536;26.068;2023-11-21T08:22:55;5.63;;;2.60;;
40198;SDS011;25906;43.536;26.068;2023-11-21T08:25:44;3.33;;;1.90;;
40198;SDS011;25906;43.536;26.068;2023-11-21T08:28:30;5.40;;;1.85;;
40198;SDS011;25906;43.536;26.068;2023-11-21T08:34:01;3.17;;;2.05;;
40198;SDS011;25906;43.536;26.068;2023-11-21T08:36:48;5.45;;;2.92;;
40198;SDS011;25906;43.536;26.068;2023-11-21T08:39:33;9.15;;;3.00;;
40198;SDS011;25906;43.536;26.068;2023-11-21T08:42:19;4.45;;;2.33;;
40198;SDS011;25906;43.536;26.068;2023-11-21T08:45:04;4.18;;;2.60;;
40198;SDS011;25906;43.536;26.068;2023-11-21T08:47:51;9.88;;;2.83;;
40198;SDS011;25906;43.536;26.068;2023-11-21T09:04:05;5.90;;;2.10;;
40198;SDS011;25906;43.536;26.068;2023-11-21T09:06:50;4.80;;;2.38;;
40198;SDS011;25906;43.536;26.068;2023-11-21T09:09:45;5.60;;;2.30;;
40198;SDS011;25906;43.536;26.068;2023-11-21T09:15:17;6.90;;;2.00;;
40198;SDS011;25906;43.536;26.068;2023-11-21T09:18:03;5.30;;;1.42;;
40198;SDS011;25906;43.536;26.068;2023-11-21T09:20:50;5.70;;;1.50;;
40198;SDS011;25906;43.536;26.068;2023-11-21T09:23:38;3.75;;;1.85;;
40198;SDS011;25906;43.536;26.068;2023-11-21T09:26:23;4.55;;;1.77;;
40198;SDS011;25906;43.536;26.068;2023-11-21T09:29:09;4.10;;;1.42;;
40198;SDS011;25906;43.536;26.068;2023-11-21T09:31:54;3.55;;;1.60;;
40198;SDS011;25906;43.536;26.068;2023-11-21T09:34:51;3.95;;;1.30;;
40198;SDS011;25906;43.536;26.068;2023-11-21T09:37:37;5.45;;;1.50;;
40198;SDS011;25906;43.536;26.068;2023-11-21T09:40:23;4.28;;;1.48;;
40198;SDS011;25906;43.536;26.068;2023-11-21T09:43:11;1.65;;;1.10;;
40198;SDS011;25906;43.536;26.068;2023-11-21T09:46:02;2.80;;;0.90;;
40198;SDS011;25906;43.536;26.068;2023-11-21T09:48:55;1.67;;;1.30;;
40198;SDS011;25906;43.536;26.068;2023-11-21T09:51:50;5.25;;;1.70;;
40198;SDS011;25906;43.536;26.068;2023-11-21T09:54:39;4.28;;;1.20;;
40198;SDS011;25906;43.536;26.068;2023-11-21T09:57:25;3.35;;;1.50;;
40198;SDS011;25906;43.536;26.068;2023-11-21T10:00:12;2.42;;;1.40;;
40198;SDS011;25906;43.536;26.068;2023-11-21T10:03:03;5.55;;;2.10;;
40198;SDS011;25906;43.536;26.068;2023-11-21T10:05:48;2.50;;;1.23;;
40198;SDS011;25906;43.536;26.068;2023-11-21T10:08:35;5.03;;;2.13;;
40198;SDS011;25906;43.536;26.068;2023-11-21T10:11:25;2.67;;;1.80;;
40198;SDS011;25906;43.536;26.068;2023-11-21T10:14:12;3.13;;;1.58;;
40198;SDS011;25906;43.536;26.068;2023-11-21T10:16:59;4.50;;;2.20;;
40198;SDS011;25906;43.536;26.068;2023-11-21T10:19:46;3.13;;;1.30;;
40198;SDS011;25906;43.536;26.068;2023-11-21T10:22:32;4.18;;;2.10;;
40198;SDS011;25906;43.536;26.068;2023-11-21T10:28:05;5.97;;;2.92;;
40198;SDS011;25906;43.536;26.068;2023-11-21T10:30:51;4.90;;;2.03;;
40198;SDS011;25906;43.536;26.068;2023-11-21T10:33:37;1.45;;;1.25;;
40198;SDS011;25906;43.536;26.068;2023-11-21T10:36:27;3.55;;;1.25;;
40198;SDS011;25906;43.536;26.068;2023-11-21T10:39:19;2.70;;;1.77;;
40198;SDS011;25906;43.536;26.068;2023-11-21T10:42:07;3.10;;;1.70;;
40198;SDS011;25906;43.536;26.068;2023-11-21T10:44:54;3.05;;;1.67;;
40198;SDS011;25906;43.536;26.068;2023-11-21T10:47:40;2.60;;;1.50;;
40198;SDS011;25906;43.536;26.068;2023-11-21T10:50:27;2.78;;;1.77;;
40198;SDS011;25906;43.536;26.068;2023-11-21T10:53:13;2.92;;;1.50;;
40198;SDS011;25906;43.536;26.068;2023-11-21T10:56:03;2.35;;;1.40;;
40198;SDS011;25906;43.536;26.068;2023-11-21T10:58:56;4.30;;;1.58;;
40198;SDS011;25906;43.536;26.068;2023-11-21T11:01:42;5.60;;;1.85;;
40198;SDS011;25906;43.536;26.068;2023-11-21T11:04:29;1.48;;;1.30;;
40198;SDS011;25906;43.536;26.068;2023-11-21T11:07:19;2.88;;;1.27;;
40198;SDS011;25906;43.536;26.068;2023-11-21T11:10:11;3.15;;;1.20;;
40198;SDS011;25906;43.536;26.068;2023-11-21T11:12:59;2.30;;;1.20;;
40198;SDS011;25906;43.536;26.068;2023-11-21T11:15:47;2.58;;;1.40;;
40198;SDS011;25906;43.536;26.068;2023-11-21T11:18:33;4.45;;;1.88;;
40198;SDS011;25906;43.536;26.068;2023-11-21T11:21:27;2.92;;;1.77;;
40198;SDS011;25906;43.536;26.068;2023-11-21T11:24:42;3.47;;;1.60;;
40198;SDS011;25906;43.536;26.068;2023-11-21T11:33:48;7.53;;;4.07;;
40198;SDS011;25906;43.536;26.068;2023-11-21T11:36:48;4.60;;;2.97;;
40198;SDS011;25906;43.536;26.068;2023-11-21T11:39:41;3.83;;;1.77;;
40198;SDS011;25906;43.536;26.068;2023-11-21T11:42:28;4.03;;;2.35;;
40198;SDS011;25906;43.536;26.068;2023-11-21T11:45:18;6.93;;;4.57;;
40198;SDS011;25906;43.536;26.068;2023-11-21T11:48:10;2.45;;;2.00;;
40198;SDS011;25906;43.536;26.068;2023-11-21T11:51:02;2.38;;;1.50;;
40198;SDS011;25906;43.536;26.068;2023-11-21T11:54:05;2.45;;;1.70;;
40198;SDS011;25906;43.536;26.068;2023-11-21T11:56:52;3.17;;;1.30;;
40198;SDS011;25906;43.536;26.068;2023-11-21T12:03:07;2.00;;;1.15;;
40198;SDS011;25906;43.536;26.068;2023-11-21T12:05:53;1.45;;;0.90;;
40198;SDS011;25906;43.536;26.068;2023-11-21T12:08:43;1.27;;;0.98;;
40198;SDS011;25906;43.536;26.068;2023-11-21T12:11:33;2.72;;;1.48;;
40198;SDS011;25906;43.536;26.068;2023-11-21T12:14:20;1.42;;;1.00;;
40198;SDS011;25906;43.536;26.068;2023-11-21T12:17:09;2.47;;;1.65;;
40198;SDS011;25906;43.536;26.068;2023-11-21T12:20:00;15.57;;;6.30;;
40198;SDS011;25906;43.536;26.068;2023-11-21T12:22:52;2.33;;;1.58;;
40198;SDS011;25906;43.536;26.068;2023-11-21T12:25:41;1.48;;;0.80;;
40198;SDS011;25906;43.536;26.068;2023-11-21T12:28:28;2.65;;;1.65;;
40198;SDS011;25906;43.536;26.068;2023-11-21T12:31:16;2.17;;;1.48;;
40198;SDS011;25906;43.536;26.068;2023-11-21T12:34:02;1.70;;;1.38;;
40198;SDS011;25906;43.536;26.068;2023-11-21T12:36:48;1.45;;;0.80;;
40198;SDS011;25906;43.536;26.068;2023-11-21T12:39:34;1.00;;;0.85;;
40198;SDS011;25906;43.536;26.068;2023-11-21T12:42:20;1.63;;;0.88;;
40198;SDS011;25906;43.536;26.068;2023-11-21T12:45:22;1.75;;;0.80;;
40198;SDS011;25906;43.536;26.068;2023-11-21T12:48:10;1.13;;;0.70;;
40198;SDS011;25906;43.536;26.068;2023-11-21T12:53:45;1.08;;;0.65;;
40198;SDS011;25906;43.536;26.068;2023-11-21T12:56:32;1.00;;;0.82;;
40198;SDS011;25906;43.536;26.068;2023-11-21T12:59:17;1.13;;;0.88;;
40198;SDS011;25906;43.536;26.068;2023-11-21T13:02:07;1.10;;;0.60;;
40198;SDS011;25906;43.536;26.068;2023-11-21T13:05:03;3.05;;;1.20;;
40198;SDS011;25906;43.536;26.068;2023-11-21T13:07:51;5.63;;;1.27;;
40198;SDS011;25906;43.536;26.068;2023-11-21T13:10:40;4.20;;;0.73;;
40198;SDS011;25906;43.536;26.068;2023-11-21T13:13:28;1.25;;;0.70;;
40198;SDS011;25906;43.536;26.068;2023-11-21T13:16:14;0.95;;;0.80;;
40198;SDS011;25906;43.536;26.068;2023-11-21T13:19:02;1.00;;;0.90;;
40198;SDS011;25906;43.536;26.068;2023-11-21T13:21:48;0.90;;;0.70;;
40198;SDS011;25906;43.536;26.068;2023-11-21T13:24:34;0.60;;;0.60;;
40198;SDS011;25906;43.536;26.068;2023-11-21T13:27:19;0.70;;;0.70;;
40198;SDS011;25906;43.536;26.068;2023-11-21T13:30:05;1.15;;;0.73;;
40198;SDS011;25906;43.536;26.068;2023-11-21T13:32:52;1.02;;;0.70;;
40198;SDS011;25906;43.536;26.068;2023-11-21T13:35:42;2.97;;;1.00;;
40198;SDS011;25906;43.536;26.068;2023-11-21T13:38:28;2.30;;;1.27;;
40198;SDS011;25906;43.536;26.068;2023-11-21T13:41:18;2.00;;;1.45;;
40198;SDS011;25906;43.536;26.068;2023-11-21T13:44:06;2.80;;;1.30;;
40198;SDS011;25906;43.536;26.068;2023-11-21T13:47:15;1.08;;;0.98;;
40198;SDS011;25906;43.536;26.068;2023-11-21T13:50:01;5.00;;;2.15;;
40198;SDS011;25906;43.536;26.068;2023-11-21T13:52:47;5.72;;;2.05;;
40198;SDS011;25906;43.536;26.068;2023-11-21T13:55:32;4.10;;;1.42;;
40198;SDS011;25906;43.536;26.068;2023-11-21T13:58:21;2.55;;;1.30;;
40198;SDS011;25906;43.536;26.068;2023-11-21T14:01:13;1.80;;;1.23;;
40198;SDS011;25906;43.536;26.068;2023-11-21T14:04:17;3.13;;;1.00;;
40198;SDS011;25906;43.536;26.068;2023-11-21T14:07:02;2.58;;;1.35;;
40198;SDS011;25906;43.536;26.068;2023-11-21T14:10:05;5.07;;;1.63;;
40198;SDS011;25906;43.536;26.068;2023-11-21T14:12:59;4.25;;;1.58;;
40198;SDS011;25906;43.536;26.068;2023-11-21T14:15:45;2.28;;;1.50;;
40198;SDS011;25906;43.536;26.068;2023-11-21T14:18:31;3.80;;;1.50;;
40198;SDS011;25906;43.536;26.068;2023-11-21T14:21:28;5.43;;;3.13;;
40198;SDS011;25906;43.536;26.068;2023-11-21T14:24:17;6.40;;;3.05;;
40198;SDS011;25906;43.536;26.068;2023-11-21T14:27:02;4.53;;;1.70;;
40198;SDS011;25906;43.536;26.068;2023-11-21T14:29:51;4.30;;;1.77;;
40198;SDS011;25906;43.536;26.068;2023-11-21T14:32:37;3.42;;;2.00;;
40198;SDS011;25906;43.536;26.068;2023-11-21T14:35:23;3.65;;;1.98;;
40198;SDS011;25906;43.536;26.068;2023-11-21T14:38:09;6.28;;;3.10;;
40198;SDS011;25906;43.536;26.068;2023-11-21T14:40:55;7.10;;;3.60;;
40198;SDS011;25906;43.536;26.068;2023-11-21T14:43:42;9.23;;;3.92;;
40198;SDS011;25906;43.536;26.068;2023-11-21T14:46:30;6.00;;;3.50;;
40198;SDS011;25906;43.536;26.068;2023-11-21T14:52:04;7.47;;;3.50;;
40198;SDS011;25906;43.536;26.068;2023-11-21T14:55:04;5.97;;;3.28;;
40198;SDS011;25906;43.536;26.068;2023-11-21T14:58:08;7.55;;;2.72;;
40198;SDS011;25906;43.536;26.068;2023-11-21T15:00:58;4.90;;;2.50;;
40198;SDS011;25906;43.536;26.068;2023-11-21T15:03:48;5.22;;;2.88;;
40198;SDS011;25906;43.536;26.068;2023-11-21T15:06:36;8.35;;;4.00;;
40198;SDS011;25906;43.536;26.068;2023-11-21T15:09:26;11.18;;;5.38;;
40198;SDS011;25906;43.536;26.068;2023-11-21T15:12:25;28.35;;;12.40;;
40198;SDS011;25906;43.536;26.068;2023-11-21T15:15:12;18.95;;;10.07;;
40198;SDS011;25906;43.536;26.068;2023-11-21T15:17:59;22.35;;;10.05;;
40198;SDS011;25906;43.536;26.068;2023-11-21T15:20:44;8.95;;;4.45;;
40198;SDS011;25906;43.536;26.068;2023-11-21T15:23:30;8.20;;;5.35;;
40198;SDS011;25906;43.536;26.068;2023-11-21T15:26:19;8.23;;;4.97;;
40198;SDS011;25906;43.536;26.068;2023-11-21T15:29:07;6.22;;;3.13;;
40198;SDS011;25906;43.536;26.068;2023-11-21T15:31:55;4.70;;;2.70;;
40198;SDS011;25906;43.536;26.068;2023-11-21T15:34:41;4.68;;;2.97;;
40198;SDS011;25906;43.536;26.068;2023-11-21T15:37:26;3.90;;;2.40;;
40198;SDS011;25906;43.536;26.068;2023-11-21T15:40:14;7.03;;;2.95;;
40198;SDS011;25906;43.536;26.068;2023-11-21T15:43:01;6.63;;;2.63;;
40198;SDS011;25906;43.536;26.068;2023-11-21T15:45:48;5.35;;;2.70;;
40198;SDS011;25906;43.536;26.068;2023-11-21T15:48:34;5.90;;;2.45;;
40198;SDS011;25906;43.536;26.068;2023-11-21T15:51:28;4.57;;;2.50;;
40198;SDS011;25906;43.536;26.068;2023-11-21T15:54:15;4.63;;;2.33;;
40198;SDS011;25906;43.536;26.068;2023-11-21T15:57:00;6.93;;;3.00;;
40198;SDS011;25906;43.536;26.068;2023-11-21T15:59:46;4.55;;;2.80;;
40198;SDS011;25906;43.536;26.068;2023-11-21T16:02:31;4.80;;;3.00;;
40198;SDS011;25906;43.536;26.068;2023-11-21T16:05:16;6.90;;;3.20;;
40198;SDS011;25906;43.536;26.068;2023-11-21T16:08:02;8.73;;;3.80;;
40198;SDS011;25906;43.536;26.068;2023-11-21T16:10:48;5.63;;;3.30;;
40198;SDS011;25906;43.536;26.068;2023-11-21T16:13:33;4.50;;;2.40;;
40198;SDS011;25906;43.536;26.068;2023-11-21T16:16:22;4.63;;;2.80;;
40198;SDS011;25906;43.536;26.068;2023-11-21T16:19:07;7.30;;;2.45;;
40198;SDS011;25906;43.536;26.068;2023-11-21T16:21:53;2.35;;;1.70;;
40198;SDS011;25906;43.536;26.068;2023-11-21T16:24:39;3.65;;;1.92;;
40198;SDS011;25906;43.536;26.068;2023-11-21T16:27:25;4.47;;;1.70;;
40198;SDS011;25906;43.536;26.068;2023-11-21T16:30:10;3.42;;;2.13;;
40198;SDS011;25906;43.536;26.068;2023-11-21T16:32:57;2.38;;;2.10;;
40198;SDS011;25906;43.536;26.068;2023-11-21T16:35:42;3.60;;;2.15;;
40198;SDS011;25906;43.536;26.068;2023-11-21T16:38:28;3.45;;;1.95;;
40198;SDS011;25906;43.536;26.068;2023-11-21T16:41:13;6.50;;;2.50;;
40198;SDS011;25906;43.536;26.068;2023-11-21T16:43:59;5.82;;;2.58;;
40198;SDS011;25906;43.536;26.068;2023-11-21T16:46:46;4.32;;;2.85;;
40198;SDS011;25906;43.536;26.068;2023-11-21T16:49:37;4.68;;;2.22;;
40198;SDS011;25906;43.536;26.068;2023-11-21T16:52:24;8.23;;;2.60;;
40198;SDS011;25906;43.536;26.068;2023-11-21T16:55:09;5.45;;;3.40;;
40198;SDS011;25906;43.536;26.068;2023-11-21T16:57:56;5.20;;;2.80;;
40198;SDS011;25906;43.536;26.068;2023-11-21T17:00:41;5.97;;;3.67;;
40198;SDS011;25906;43.536;26.068;2023-11-21T17:03:27;10.15;;;4.22;;
40198;SDS011;25906;43.536;26.068;2023-11-21T17:06:12;11.88;;;4.00;;
40198;SDS011;25906;43.536;26.068;2023-11-21T17:08:58;5.68;;;4.30;;
40198;SDS011;25906;43.536;26.068;2023-11-21T17:11:46;6.35;;;4.30;;
40198;SDS011;25906;43.536;26.068;2023-11-21T17:14:36;6.60;;;4.70;;
40198;SDS011;25906;43.536;26.068;2023-11-21T17:17:24;9.85;;;6.72;;
40198;SDS011;25906;43.536;26.068;2023-11-21T17:20:09;11.10;;;7.28;;
40198;SDS011;25906;43.536;26.068;2023-11-21T17:22:55;23.60;;;11.57;;